• Join FlightAware (Why Join?)
  • Login
  • US Flag 
12:43AM EDT


 

Airport Tracker/Info


-or-


 

Live Flight TrackerFlight Track Log ✈ SKW5652 ✈ 25-May-2013 ✈ KPSP - KSFO

Flight Track Log - Related Links

Times and Time Zones

All times are in EDT time to prevent confusion due to time zone crossing. See the SKW5652 flight status page for this flight to view local times or setup timezone preferences in your user account.

Time Position Orientation Groundspeed Altitude Reporting Facility
EDT Latitude Longitude Course Direction KTS MPH feet Rate Location/Type
03:50PM 33.8667 -116.5500 342° North 180 207 2,400  Level Southern California TRACON
03:51PM 33.9167 -116.5667 345° North 240 276 4,600 2,280 Climbing Southern California TRACON
03:52PM 33.9667 -116.5333 29° Northeast 256 295 7,000 2,100 Climbing Southern California TRACON
03:53PM 34.1901 -116.5534 338° Northwest  Level FlightAware Approximate
03:53PM 34.0517 -116.5233 North 281 323 9,200  Level Los Angeles Center
03:54PM 34.2934 -116.5920 351° North  Level FlightAware Approximate
03:54PM 34.1425 -116.5331 355° North 298 343 12,100  Level Los Angeles Center
03:55PM 34.3982 -116.6259 342° North  Level FlightAware Approximate
03:55PM 34.2242 -116.5678 341° North 308 354 14,400  Level Los Angeles Center
03:56PM 34.3097 -116.6000 343° North 321 369 16,400 1,860 Climbing Los Angeles Center
03:57PM 34.3928 -116.6492 334° Northwest 338 389 18,300 1,920 Climbing Los Angeles Center
03:58PM 34.4192 -116.7575 286° West 321 369 20,400 1,980 Climbing Los Angeles Center
04:00PM 34.4411 -116.8833 282° West 333 383 22,400 1,200 Climbing Los Angeles Center
04:01PM 34.4603 -117.0008 281° West 353 406 23,000 240 Climbing Los Angeles Center
04:02PM 34.4761 -117.0986 281° West 367 422 23,000 960 Level Los Angeles Center
04:03PM 34.5003 -117.2458 281° West 371 427 25,100 1,800 Climbing Los Angeles Center
04:04PM 34.5203 -117.3667 281° West 367 422 26,800 1,380 Climbing Los Angeles Center
04:05PM 34.5392 -117.4914 280° West 372 428 28,000 540 Climbing Los Angeles Center
04:06PM 34.5636 -117.6439 281° West 379 436 28,000  Level Los Angeles Center
04:07PM 34.5850 -117.7708 282° West 382 440 28,000  Level Los Angeles Center
04:08PM 34.6058 -117.8928 282° West 369 425 28,000  Level Los Angeles Center
04:09PM 34.6256 -118.0175 281° West 374 430 28,000  Level Los Angeles Center
04:10PM 34.6453 -118.1417 281° West 375 432 28,000  Level Los Angeles Center
04:11PM 34.6642 -118.2667 280° West 376 433 28,000  Level Los Angeles Center
04:12PM 34.6900 -118.3897 284° West 379 436 28,000  Level Los Angeles Center
04:13PM 34.7533 -118.5172 301° West 388 447 28,000  Level Los Angeles Center
04:14PM 34.7969 -118.6069 301° West 386 444 28,000  Level Los Angeles Center
04:15PM 34.8611 -118.7428 300° West 387 445 28,000  Level Los Angeles Center
04:16PM 34.9236 -118.8739 300° West 387 445 28,000  Level Los Angeles Center
04:17PM 34.9761 -118.9894 299° West 390 449 28,000  Level Los Angeles Center
04:18PM 35.0311 -119.1036 300° West 390 449 28,000  Level Los Angeles Center
04:19PM 35.0856 -119.2186 300° West 396 456 28,000  Level Los Angeles Center
04:20PM 35.1400 -119.3328 300° West 389 448 28,000  Level Los Angeles Center
04:21PM 35.1936 -119.4492 299° West 396 456 28,000  Level Los Angeles Center
04:22PM 35.2586 -119.5861 300° West 393 452 28,000  Level Los Angeles Center
04:23PM 35.3119 -119.7008 300° West 388 447 28,000  Level Los Angeles Center
04:24PM 35.3644 -119.8147 300° West 382 440 28,000  Level Los Angeles Center
04:25PM 35.4067 -119.9067 299° West 387 445 28,000  Level Los Angeles Center
04:26PM 35.4697 -120.0447 299° West 391 450 28,000  Level Los Angeles Center
04:27PM 35.5319 -120.1811 299° West 394 453 28,000  Level Los Angeles Center
04:28PM 35.5847 -120.2983 299° West 396 456 28,000  Level Los Angeles Center
04:29PM 35.6372 -120.4153 299° West 394 453 28,000  Level Los Angeles Center
04:31PM 35.6883 -120.5308 299° West 392 451 28,000  Level Los Angeles Center
04:32PM 35.7519 -120.6706 299° West 393 452 28,000  Level Oakland Center
04:33PM 35.8050 -120.7897 299° West 396 456 28,000  Level Oakland Center
04:34PM 35.8583 -120.9092 299° West 398 458 28,000  Level Oakland Center
04:35PM 35.9222 -121.0533 299° West 401 461 28,000  Level Oakland Center
04:36PM 35.9753 -121.1742 299° West 402 463 28,000  Level Oakland Center
04:37PM 36.0269 -121.2969 298° West 402 463 28,000  Level Oakland Center
04:38PM 36.0897 -121.4114 304° West 405 466 28,000  Level Oakland Center
04:39PM 36.1858 -121.4900 327° Northwest 413 475 28,000 -60 Level Oakland Center
04:40PM 36.2792 -121.5689 326° Northwest 409 471 27,900 -600 Descending Oakland Center
04:41PM 36.3725 -121.6503 325° Northwest 410 472 26,800 -1,740 Descending Oakland Center
04:42PM 36.4708 -121.7328 326° Northwest 422 486 24,400 -2,640 Descending Oakland Center
04:43PM 36.5844 -121.8203 328° Northwest 421 484 21,500 -2,700 Descending Oakland Center
04:44PM 36.7167 -121.8833 339° North 404 465 18,500 -2,340 Descending Northern Cal TRACON
04:45PM 36.8167 -121.9333 338° Northwest 390 449 16,400 -2,340 Descending Northern Cal TRACON
04:46PM 36.9167 -121.9833 338° Northwest 379 436 13,900 -2,400 Descending Northern Cal TRACON
04:47PM 37.0000 -122.0333 334° Northwest 365 420 11,600 -1,980 Descending Northern Cal TRACON
04:48PM 37.0833 -122.0500 351° North 334 384 10,200 -960 Descending Northern Cal TRACON
04:49PM 37.1667 -122.0833 342° North 283 326 9,800 -840 Descending Northern Cal TRACON
04:50PM 37.2367 -122.0933 354° North 277 319 8,600 -1,320 Descending Oakland Center
04:51PM 37.3106 -122.1122 349° North 272 313 7,100 -1,680 Descending Oakland Center
04:52PM 37.4003 -122.1361 348° North 274 315 5,300 -1,500 Descending Oakland Center
04:53PM 37.4719 -122.1556 348° North 268 308 4,100 -900 Descending Oakland Center
04:54PM 37.5328 -122.1767 345° North 249 287 3,500 -960 Descending Oakland Center
04:55PM 37.5581 -122.2328 300° West 204 235 2,200 -1,320 Descending Oakland Center